Annapolis, IL

6:38 AM CST on November 26, 2014 (GMT -0600)
Northwest | Change Station
CLOSE
Current Station
Personal Weather Station
Location: Robinson, IL
Elevation: 545 ft
Nearby Weather Stations
Active Advisory: Flood Warning

Elev 545 ft 39.02 °N, 87.75 °W | Updated 10 seconds ago

Clear
Clear
22.0 °F
Feels Like 22 °F
N
0.0
Wind Variable Wind from East
Gusts 0.0 mph

Today
High -- | Low -- °F
--% Chance of Precip.
Yesterday
High -- | Low -- °F
Precip. -- in
6:46 AM 4:30 PM
Waxing Crescent, 19% visible
Pressure 30.17 in
Visibility 7.0 miles
Clouds Clear
Windchill 22 °F
Dew Point 20 °F
Humidity 93%
Rainfall 0.00 in
Snow Depth Not available.
UV 0 out of 12
Pollen .10 out of 12
Air Quality Not available.
Flu Activity Not available.
METAR KRSV 261215Z AUTO 00000KT 7SM CLR M06/M06 A3017 RMK AO2 T10591064

More Conditions Fewer Conditions

Pressure 30.17 in
Visibility 7.0 miles
Clouds Clear
Windchill 22 °F
Dew Point 20 °F
Humidity 93%
Rainfall 0.00 in
Snow Depth Not available.
UV 0 out of 12
Pollen .10 out of 12
Air Quality Not available.
Flu Activity Not available.
METAR KRSV 261215Z AUTO 00000KT 7SM CLR M06/M06 A3017 RMK AO2 T10591064

More Conditions Fewer Conditions

10-Day Weather Forecast

Almanac

Astronomy

Nov. 26, 2014 Rise Set
Actual Time
Civil Twilight
Nautical Twilight
Astronomical Twilight
Moon
Length of Visible Light
Length of Day
Tomorrow will be .
, % of the Moon is Illuminated

Today's Extremes

State Highs State Lows

Community

WunderPhotos

Upload Photos

1,773,713 photos uploaded!

WunderBlogs® & News

Nearby

Air Quality

  Air Quality AQ Index Pollutant
Not available.

Snow Depth

Station Depth Elevation

Earthquake Activity

City Distance Mag. Time & Date
Minimum magnitude displayed is 2.5.

Coastal Water Temperatures

Place Temperature

Nearby Weather Stations